Time;durP1;ratioP1;P1;durP2;ratioP2;P2;SDS_P1;SDS_P2;PMS_P1;PMS_P2;Temp;Humidity;BMP_temperature;BMP_pressure;BME280_temperature;BME280_humidity;BME280_pressure;Samples;Min_cycle;Max_cycle;Signal;HPM_P1;HPM_P2
2024/04/22 00:01:34;;;;;;;8.35;2.42;;;;;;;17.75;100.00;101092.03;11131410;26;20000;-85
2024/04/22 00:06:58;;;;;;;4.30;2.22;;;;;;;17.78;100.00;101088.47;11127241;26;20012;-85
2024/04/22 00:12:25;;;;;;;4.43;1.63;;;;;;;17.86;100.00;101090.16;11131587;26;20000;-86
2024/04/22 00:17:49;;;;;;;3.47;1.67;;;;;;;17.99;100.00;101098.94;11144355;26;20526;-87
2024/04/22 00:23:13;;;;;;;4.63;2.10;;;;;;;18.06;100.00;101103.31;11082423;26;20368;-86
2024/04/22 00:28:40;;;;;;;7.03;2.08;;;;;;;17.93;100.00;101115.91;11096182;26;20036;-87
2024/04/22 00:34:04;;;;;;;3.13;1.63;;;;;;;17.86;100.00;101113.28;11129847;26;20015;-85
2024/04/22 00:39:28;;;;;;;2.67;1.10;;;;;;;17.91;97.89;101108.81;11103405;26;20004;-84
2024/04/22 00:44:55;;;;;;;3.80;1.27;;;;;;;18.02;78.27;101108.72;11129331;26;20036;-87
2024/04/22 00:50:21;;;;;;;2.55;1.00;;;;;;;17.97;73.40;101107.88;11115818;26;20012;-85
2024/04/22 00:55:46;;;;;;;4.22;1.00;;;;;;;17.80;68.73;101103.56;11121343;26;20000;-85
2024/04/22 01:01:14;;;;;;;2.78;1.00;;;;;;;17.69;70.11;101105.44;11125280;26;20068;-86
2024/04/22 01:06:39;;;;;;;2.70;1.30;;;;;;;17.74;71.88;101092.94;11105544;26;20004;-85
2024/04/22 01:12:03;;;;;;;3.67;1.65;;;;;;;17.81;71.64;101088.41;11104013;26;20015;-86
2024/04/22 01:17:40;;;;;;;2.15;1.05;;;;;;;17.75;67.83;101093.81;11119225;26;20031;-85
2024/04/22 01:23:07;;;;;;;5.18;1.25;;;;;;;17.66;67.53;101083.19;11125840;26;20001;-85
2024/04/22 01:28:31;;;;;;;3.22;1.20;;;;;;;17.51;66.75;101069.06;11102809;26;20075;-85
2024/04/22 01:33:55;;;;;;;1.77;0.90;;;;;;;17.59;64.92;101084.16;11110052;26;20016;-86
2024/04/22 01:39:22;;;;;;;3.92;1.20;;;;;;;17.57;61.62;101084.16;11128652;26;20000;-87
2024/04/22 01:44:46;;;;;;;1.23;0.90;;;;;;;17.44;56.73;101096.69;11127032;26;20004;-86
2024/04/22 01:50:11;;;;;;;1.80;0.90;;;;;;;17.34;51.73;101086.09;11127395;26;20015;-86
2024/04/22 01:55:38;;;;;;;3.17;0.85;;;;;;;17.43;49.11;101083.34;11118793;26;20001;-85
2024/04/22 02:01:07;;;;;;;2.35;1.10;;;;;;;17.55;46.07;101069.91;11099126;26;19996;-85
2024/04/22 02:06:30;;;;;;;;;;;;;;;17.73;44.35;101076.91;11127463;26;20015;-86
2024/04/22 02:11:57;;;;;;;3.38;1.00;;;;;;;17.90;43.60;101064.31;11094352;26;20028;-86
2024/04/22 02:17:22;;;;;;;1.88;1.00;;;;;;;18.09;45.50;100988.41;11120583;26;20000;-85
2024/04/22 02:22:46;;;;;;;7.03;1.27;;;;;;;18.25;47.43;101029.19;11095180;26;20000;-85
2024/04/22 02:28:13;;;;;;;2.85;1.20;;;;;;;18.28;55.84;101007.78;11110360;26;20022;-87
2024/04/22 02:33:37;;;;;;;5.95;1.42;;;;;;;18.28;62.48;101031.84;11126837;26;20074;-87
2024/04/22 02:39:01;;;;;;;4.78;0.93;;;;;;;18.24;59.77;101040.81;11118824;26;20022;-84
2024/04/22 02:44:28;;;;;;;3.97;1.23;;;;;;;18.28;55.36;101069.25;11076770;26;20000;-85
2024/04/22 02:49:52;;;;;;;4.30;1.23;;;;;;;18.30;57.08;101086.16;11094706;26;20008;-85
2024/04/22 02:55:17;;;;;;;4.15;1.60;;;;;;;18.23;61.99;101093.38;11100334;26;20008;-86
2024/04/22 03:00:50;;;;;;;4.63;1.25;;;;;;;18.21;66.25;101094.28;11098160;26;20020;-85
2024/04/22 03:06:14;;;;;;;2.97;1.33;;;;;;;18.16;63.23;101107.69;11075643;26;19997;-86
2024/04/22 03:11:38;;;;;;;3.28;1.00;;;;;;;18.15;56.16;101113.94;11105433;26;20028;-86
2024/04/22 03:17:05;;;;;;;1.75;1.00;;;;;;;18.19;50.40;101096.94;11137159;26;20032;-86
2024/04/22 03:22:29;;;;;;;3.05;0.90;;;;;;;18.27;47.82;101083.50;11138735;26;20004;-86
2024/04/22 03:27:53;;;;;;;3.90;1.15;;;;;;;18.32;46.86;101057.63;11131930;26;20451;-87
2024/04/22 03:33:19;;;;;;;23.73;2.53;;;;;;;18.35;48.65;101068.28;11132858;26;20449;-83
2024/04/22 03:38:43;;;;;;;4.85;1.13;;;;;;;18.36;49.61;101088.78;11131418;26;20016;-87
2024/04/22 03:44:08;;;;;;;3.42;0.90;;;;;;;18.32;51.71;101077.22;11157301;26;20001;-85
2024/04/22 03:49:54;;;;;;;2.67;0.85;;;;;;;18.35;50.50;101096.81;11132098;26;20020;-87
2024/04/22 03:55:18;;;;;;;3.58;0.98;;;;;;;18.46;46.98;101097.56;11131503;26;20840;-86
2024/04/22 04:00:42;;;;;;;2.75;0.90;;;;;;;18.58;47.14;101092.97;11121616;26;20004;-87
2024/04/22 04:06:09;;;;;;;3.00;1.02;;;;;;;18.70;44.78;101106.25;11131879;26;20014;-86
2024/04/22 04:11:37;;;;;;;1.93;0.97;;;;;;;18.84;43.34;101119.41;11130899;26;20146;-87
2024/04/22 04:17:01;;;;;;;14.67;2.37;;;;;;;18.95;43.33;101112.16;11139111;26;20011;-87
2024/04/22 04:22:28;;;;;;;2.90;0.90;;;;;;;19.11;42.40;101108.34;11104405;26;20000;-86
2024/04/22 04:27:52;;;;;;;2.03;0.70;;;;;;;19.32;40.55;101104.47;11107003;26;20004;-87
2024/04/22 04:33:16;;;;;;;4.13;1.00;;;;;;;19.48;40.07;101108.75;11128399;26;20022;-87
2024/04/22 04:38:44;;;;;;;5.05;0.90;;;;;;;19.56;38.93;101087.19;11105636;26;20000;-87
2024/04/22 04:44:08;;;;;;;5.63;0.80;;;;;;;19.68;38.67;101104.88;11123113;26;19996;-88
2024/04/22 04:49:32;;;;;;;3.60;0.80;;;;;;;19.77;38.52;101099.34;11095812;26;20004;-87
2024/04/22 04:55:00;;;;;;;6.03;1.10;;;;;;;19.88;38.35;101111.66;11099279;26;20063;-88
2024/04/22 05:00:24;;;;;;;2.17;0.80;;;;;;;20.01;38.02;101109.66;11102492;26;20004;-86
2024/04/22 05:05:48;;;;;;;4.28;1.10;;;;;;;20.21;38.02;101112.00;11107609;26;20004;-88
2024/04/22 05:11:16;;;;;;;2.03;0.95;;;;;;;20.43;37.44;101107.13;11128044;26;20070;-89
2024/04/22 05:16:42;;;;;;;3.17;1.10;;;;;;;20.67;36.89;101106.66;11077879;26;20509;-86
2024/04/22 05:22:06;;;;;;;2.65;0.70;;;;;;;20.92;36.86;101115.06;11095805;26;20008;-87
2024/04/22 05:27:34;;;;;;;4.68;1.00;;;;;;;21.09;36.71;101119.16;11102229;26;20444;-90
2024/04/22 05:36:08;;;;;;;1.75;0.75;;;;;;;21.28;35.73;101119.66;11126745;26;20050;-85
2024/04/22 05:38:48;;;;;;;4.75;1.20;;;;;;;21.47;35.67;101152.34;11119255;26;20004;-86
2024/04/22 05:44:15;;;;;;;;;;;;;;;21.72;35.76;101152.69;11117928;26;20014;-87
2024/04/22 05:49:42;;;;;;;1.67;0.70;;;;;;;21.92;34.72;101157.56;11091581;26;19926;-87
2024/04/22 05:55:08;;;;;;;4.97;0.90;;;;;;;22.08;33.88;101172.41;11099665;26;20000;-87
2024/04/22 06:00:35;;;;;;;5.10;0.95;;;;;;;22.22;33.61;101184.59;11106660;26;20020;-88
2024/04/22 06:06:00;;;;;;;3.07;0.67;;;;;;;22.37;33.28;101202.16;11124163;26;19996;-89
2024/04/22 06:11:24;;;;;;;1.75;0.65;;;;;;;22.58;33.05;101189.91;11112246;26;20235;-88
2024/04/22 06:16:51;;;;;;;4.32;0.90;;;;;;;22.96;32.99;101176.34;11129621;26;20014;-90
2024/04/22 06:22:16;;;;;;;3.05;0.98;;;;;;;23.39;32.01;101134.63;11103405;26;20449;-90
2024/04/22 06:27:40;;;;;;;1.35;0.80;;;;;;;23.75;31.81;101102.94;11126190;26;20006;-87
2024/04/22 06:33:07;;;;;;;3.40;1.00;;;;;;;23.71;32.30;101110.25;11105305;26;20016;-89
2024/04/22 06:38:32;;;;;;;3.97;0.98;;;;;;;23.76;31.86;101159.50;11124767;26;20015;-86
2024/04/22 06:43:56;;;;;;;3.85;1.15;;;;;;;24.08;31.12;101169.25;11101841;26;20000;-84
2024/04/22 06:49:23;;;;;;;3.83;0.88;;;;;;;24.30;29.92;101177.50;11125019;26;20440;-86
2024/04/22 06:54:48;;;;;;;2.07;0.60;;;;;;;24.63;31.14;101202.44;11099358;26;20015;-85
2024/04/22 07:00:13;;;;;;;5.28;1.08;;;;;;;25.24;31.25;101198.41;11110040;26;20019;-87
2024/04/22 07:05:40;;;;;;;4.80;1.20;;;;;;;25.51;29.87;101196.47;11083058;26;20008;-90
2024/04/22 07:11:04;;;;;;;2.63;0.95;;;;;;;25.31;30.10;101193.66;11121947;26;20008;-88
2024/04/22 07:16:29;;;;;;;4.38;1.20;;;;;;;24.90;29.76;101190.69;11116945;26;20348;-89
2024/04/22 07:21:58;;;;;;;3.22;0.80;;;;;;;24.83;31.28;101181.00;11094181;26;20012;-85
2024/04/22 07:27:22;;;;;;;3.80;1.02;;;;;;;24.77;32.36;101216.34;11120514;26;20063;-83
2024/04/22 07:32:47;;;;;;;4.10;1.20;;;;;;;24.75;33.57;101220.91;11119669;26;20106;-83
2024/04/22 07:38:18;;;;;;;3.22;1.33;;;;;;;24.80;34.47;101223.47;11124293;26;20036;-84
2024/04/22 07:43:42;;;;;;;6.45;1.70;;;;;;;25.19;34.91;101221.16;11095692;26;20015;-84
2024/04/22 07:49:06;;;;;;;2.83;1.10;;;;;;;25.33;35.75;101248.56;11095997;26;20012;-85
2024/04/22 07:54:34;;;;;;;8.27;1.88;;;;;;;25.46;37.43;101251.69;11098890;26;20025;-88
2024/04/22 07:59:59;;;;;;;7.57;2.13;;;;;;;25.58;38.35;101235.00;11127939;26;20078;-92
2024/04/22 08:05:24;;;;;;;3.85;1.90;;;;;;;25.66;39.47;101232.91;11112860;26;20020;-90
2024/04/22 08:10:51;;;;;;;5.95;1.50;;;;;;;25.71;40.71;101196.59;11100739;26;20008;-87
2024/04/22 08:16:15;;;;;;;5.70;1.92;;;;;;;25.57;40.58;101176.41;11098488;26;20000;-86
2024/04/22 08:21:39;;;;;;;5.03;1.80;;;;;;;25.58;41.37;101216.09;11133387;26;20004;-86
2024/04/22 08:27:07;;;;;;;5.93;1.45;;;;;;;25.78;40.84;101213.47;11106274;26;20011;-85
2024/04/22 08:32:31;;;;;;;7.78;1.75;;;;;;;25.80;39.47;101169.16;11131522;26;20340;-88
2024/04/22 08:37:55;;;;;;;5.22;1.52;;;;;;;25.77;38.97;101168.41;11130949;26;20004;-87
2024/04/22 08:43:23;;;;;;;6.38;1.83;;;;;;;25.63;39.57;101170.78;11131512;26;20081;-87
2024/04/22 08:48:46;;;;;;;;;;;;;;;25.88;39.10;101195.03;11106305;26;20000;-86
2024/04/22 08:54:11;;;;;;;4.82;1.30;;;;;;;25.95;38.67;101210.94;11130703;26;20343;-86
2024/04/22 08:59:39;;;;;;;3.90;1.30;;;;;;;25.90;37.79;101241.84;11105004;26;20010;-86
2024/04/22 09:05:03;;;;;;;5.50;1.48;;;;;;;25.78;37.70;101218.88;11089789;26;20008;-87
2024/04/22 09:10:27;;;;;;;8.23;1.50;;;;;;;25.91;38.60;101194.91;11057505;26;20023;-87
2024/04/22 09:16:01;;;;;;;6.35;1.83;;;;;;;26.02;38.71;101190.81;11089185;26;20000;-87
2024/04/22 09:21:27;;;;;;;8.95;1.70;;;;;;;26.27;39.17;101174.44;11104344;26;20506;-86
2024/04/22 09:26:52;;;;;;;7.38;1.65;;;;;;;26.41;39.95;101163.91;11100886;26;20016;-87
2024/04/22 09:32:23;;;;;;;7.88;1.98;;;;;;;26.43;41.17;101161.13;11094414;26;20456;-86
2024/04/22 09:37:48;;;;;;;8.52;1.73;;;;;;;26.26;42.22;101153.72;11127655;26;20000;-85
2024/04/22 09:43:16;;;;;;;8.45;2.10;;;;;;;26.17;42.86;101165.81;11126999;26;20008;-85
2024/04/22 09:48:46;;;;;;;10.80;1.88;;;;;;;26.15;43.98;101174.94;11061793;26;20000;-88
2024/04/22 09:54:10;;;;;;;5.80;1.63;;;;;;;26.05;44.75;101192.53;11108130;26;20032;-89
2024/04/22 09:59:35;;;;;;;8.57;2.13;;;;;;;25.96;46.89;101209.13;11072921;26;20015;-87
2024/04/22 10:05:02;;;;;;;9.40;2.40;;;;;;;25.93;49.26;101183.06;11108502;26;20016;-87
2024/04/22 10:10:30;;;;;;;10.15;2.58;;;;;;;26.13;50.68;101175.00;11111905;26;20004;-86
2024/04/22 10:15:54;;;;;;;7.78;2.22;;;;;;;26.15;53.40;101165.00;11124248;26;20004;-87
2024/04/22 10:21:22;;;;;;;4.75;1.92;;;;;;;25.95;56.11;101151.41;11123614;26;20006;-86
2024/04/22 10:26:47;;;;;;;7.47;2.08;;;;;;;26.10;56.64;101130.97;11112654;26;20064;-86
2024/04/22 10:32:12;;;;;;;7.22;1.67;;;;;;;26.10;53.57;101137.25;11112419;26;20394;-87
2024/04/22 10:37:38;;;;;;;7.85;2.00;;;;;;;26.37;53.45;101128.91;11126743;26;20054;-88
2024/04/22 10:43:03;;;;;;;8.00;2.05;;;;;;;26.67;50.35;101132.97;11119507;26;20001;-86
2024/04/22 10:48:27;;;;;;;4.80;1.35;;;;;;;26.84;44.96;101129.50;11123903;26;20008;-87
2024/04/22 10:53:57;;;;;;;5.97;1.50;;;;;;;27.06;44.00;101127.56;11082412;26;20073;-85
2024/04/22 11:18:10;;;;;;;3.30;1.38;;;;;;;26.78;42.23;101157.72;10806282;27;20035;-89
2024/04/22 11:23:38;;;;;;;5.28;1.40;;;;;;;26.75;43.76;101157.88;10785049;27;20018;-86
2024/04/22 11:29:06;;;;;;;5.28;1.38;;;;;;;26.57;45.58;101154.19;10794672;27;20003;-86
2024/04/22 11:34:33;;;;;;;6.22;1.45;;;;;;;26.56;46.66;101160.53;10820406;27;20403;-85
2024/04/22 11:40:03;;;;;;;7.25;1.45;;;;;;;26.64;47.06;101168.34;10809257;27;20020;-87
2024/04/22 11:45:37;;;;;;;6.93;1.00;;;;;;;26.76;46.78;101170.50;11014656;26;19997;-89
2024/04/22 11:51:01;;;;;;;6.63;1.52;;;;;;;26.98;45.79;101152.31;11068587;26;20023;-88
2024/04/22 11:56:29;;;;;;;3.63;1.00;;;;;;;27.01;45.93;101156.72;11078682;26;20001;-88
2024/04/22 12:01:56;;;;;;;6.78;1.20;;;;;;;27.03;45.07;101145.81;11062137;26;20103;-88
2024/04/22 12:07:20;;;;;;;6.82;1.42;;;;;;;27.51;44.03;101135.34;11011706;26;20325;-87
2024/04/22 12:12:44;;;;;;;2.97;1.27;;;;;;;27.67;43.62;101144.53;11098218;26;20399;-88
2024/04/22 12:18:11;;;;;;;5.07;0.88;;;;;;;27.66;41.39;101141.88;11122230;26;20011;-91
2024/04/22 12:23:35;;;;;;;3.25;1.00;;;;;;;27.21;41.87;101129.56;11104909;26;20023;-87
2024/04/22 12:28:59;;;;;;;3.33;0.90;;;;;;;27.16;42.85;101128.91;11124158;26;20359;-94
2024/04/22 12:34:26;;;;;;;4.03;1.60;;;;;;;26.98;43.75;101143.31;11133159;26;20004;-90
2024/04/22 12:39:50;;;;;;;3.70;1.00;;;;;;;26.46;44.53;101126.66;11119898;26;20484;-89
2024/04/22 12:45:14;;;;;;;5.60;1.42;;;;;;;26.18;46.97;101126.97;11131378;26;20011;-86
2024/04/22 12:50:48;;;;;;;4.15;1.23;;;;;;;25.94;46.60;101119.88;11106675;26;20073;-87
2024/04/22 12:56:12;;;;;;;8.75;1.10;;;;;;;25.78;45.67;101099.84;11105233;26;20007;-87
2024/04/22 13:01:36;;;;;;;3.47;1.38;;;;;;;25.84;44.52;101088.78;11059078;26;20253;-87
2024/04/22 13:07:03;;;;;;;6.72;1.67;;;;;;;25.71;44.56;101103.75;11125226;26;20004;-88
2024/04/22 13:12:28;;;;;;;4.47;1.37;;;;;;;26.05;46.56;101100.50;11126688;26;20081;-85
2024/04/22 13:17:52;;;;;;;7.88;1.85;;;;;;;26.08;51.64;101103.94;11150562;26;20459;-85
2024/04/22 13:23:18;;;;;;;6.65;1.60;;;;;;;25.86;57.40;101116.66;11170721;26;19997;-87
2024/04/22 13:28:43;;;;;;;5.07;1.83;;;;;;;25.96;60.88;101109.00;11129993;26;20011;-86
2024/04/22 13:34:07;;;;;;;4.97;1.27;;;;;;;25.82;62.77;101096.06;11127813;26;20030;-85
2024/04/22 13:39:33;;;;;;;10.93;1.65;;;;;;;25.55;65.70;101071.00;11080709;26;20756;-87
2024/04/22 13:44:57;;;;;;;3.47;1.30;;;;;;;25.32;64.91;101062.97;11055502;26;20081;-86
2024/04/22 13:50:21;;;;;;;5.47;1.63;;;;;;;25.20;69.47;101074.28;11128502;26;20004;-85
2024/04/22 13:55:48;;;;;;;8.82;2.03;;;;;;;25.39;66.29;101078.00;11127968;26;20320;-85
2024/04/22 14:01:12;;;;;;;7.27;2.10;;;;;;;25.71;60.63;101057.78;11082941;26;20011;-85
2024/04/22 14:06:36;;;;;;;7.50;2.00;;;;;;;25.78;56.88;101057.44;11109184;26;20055;-83
2024/04/22 14:12:03;;;;;;;4.63;1.42;;;;;;;25.88;50.84;101057.91;11078868;26;20005;-87
2024/04/22 14:17:29;;;;;;;11.53;1.40;;;;;;;25.84;48.64;101061.72;11103331;26;20003;-85
2024/04/22 14:22:53;;;;;;;6.63;1.70;;;;;;;25.76;46.05;101056.63;11200640;26;20004;-84
2024/04/22 14:28:20;;;;;;;6.70;1.38;;;;;;;25.64;47.58;101062.56;11191982;26;20051;-84
2024/04/22 14:33:44;;;;;;;6.87;1.57;;;;;;;25.68;46.29;101053.34;11127587;26;20056;-84
2024/04/22 14:39:08;;;;;;;9.68;1.65;;;;;;;25.95;45.05;101066.66;11103728;26;20017;-84
2024/04/22 14:44:36;;;;;;;6.05;1.20;;;;;;;26.17;43.25;101078.31;11126425;26;20015;-87
2024/04/22 14:50:00;;;;;;;3.65;1.10;;;;;;;25.97;41.41;101079.19;11126767;26;20527;-85
2024/04/22 14:55:24;;;;;;;3.15;0.75;;;;;;;25.63;39.38;101062.63;11125245;26;20014;-82
2024/04/22 15:00:51;;;;;;;9.45;1.45;;;;;;;25.35;39.95;101058.31;11191573;26;20022;-85
2024/04/22 15:06:15;;;;;;;4.20;1.10;;;;;;;25.24;39.89;101057.88;11205968;26;20039;-84
2024/04/22 15:11:39;;;;;;;4.00;1.10;;;;;;;25.09;39.62;101057.59;11106317;26;20000;-85
2024/04/22 15:17:06;;;;;;;3.90;1.10;;;;;;;25.03;40.44;101053.31;11142877;26;20031;-85
2024/04/22 15:22:30;;;;;;;7.85;1.73;;;;;;;24.81;41.16;101066.72;11168711;26;20004;-85
2024/04/22 15:27:54;;;;;;;5.22;1.08;;;;;;;24.57;41.67;101060.44;11108888;26;20036;-84
2024/04/22 15:33:21;;;;;;;4.78;1.10;;;;;;;24.52;41.03;101058.88;11130979;26;20019;-84
2024/04/22 15:38:45;;;;;;;5.10;1.23;;;;;;;24.38;40.78;101055.78;11131622;26;20022;-84
2024/04/22 15:44:09;;;;;;;3.83;0.82;;;;;;;24.20;39.07;101046.56;11131942;26;20004;-84
2024/04/22 15:49:37;;;;;;;2.85;0.73;;;;;;;24.12;35.81;101056.69;11099697;26;20051;-85
2024/04/22 15:55:01;;;;;;;;;;;;;;;24.16;32.64;101045.72;11069852;26;20005;-82
2024/04/22 16:00:26;;;;;;;5.25;0.90;;;;;;;24.15;33.09;101045.81;11093734;26;20381;-91
2024/04/22 16:05:55;;;;;;;1.80;0.55;;;;;;;24.13;32.96;101042.28;11072308;26;20019;-83
2024/04/22 16:11:19;;;;;;;2.28;0.77;;;;;;;24.08;31.91;101042.44;11081348;26;20008;-87
2024/04/22 16:16:44;;;;;;;3.65;0.80;;;;;;;24.01;31.65;101048.13;11071698;26;20011;-83
2024/04/22 16:22:14;;;;;;;4.05;0.98;;;;;;;23.93;31.97;101044.78;11093114;26;20077;-83
2024/04/22 16:27:39;;;;;;;3.47;1.00;;;;;;;23.84;30.63;101051.38;11099251;26;20008;-83
2024/04/22 16:33:03;;;;;;;5.03;0.90;;;;;;;23.73;28.64;101067.94;11099040;26;20050;-90
2024/04/22 16:38:30;;;;;;;2.53;1.00;;;;;;;23.71;28.25;101061.69;11096998;26;20023;-88
2024/04/22 16:43:56;;;;;;;6.10;1.00;;;;;;;23.73;27.97;101062.53;11092698;26;20614;-85
2024/04/22 16:49:21;;;;;;;2.00;0.60;;;;;;;23.74;25.94;101055.34;11094987;26;20458;-87
2024/04/22 16:54:49;;;;;;;6.18;0.95;;;;;;;23.75;25.46;101040.94;11091681;26;20001;-91
2024/04/22 17:00:14;;;;;;;5.38;0.70;;;;;;;23.75;24.14;101044.50;11118053;26;20004;-85
2024/04/22 17:05:38;;;;;;;3.67;0.70;;;;;;;23.79;24.21;101064.16;11109951;26;20047;-88
2024/04/22 17:11:10;;;;;;;2.83;0.93;;;;;;;23.76;24.03;101048.09;11065273;26;20038;-89
2024/04/22 17:16:35;;;;;;;1.85;0.47;;;;;;;23.74;23.47;101044.56;11088516;26;20012;-86
2024/04/22 17:21:59;;;;;;;3.42;0.60;;;;;;;23.80;22.29;101057.81;11104863;26;20037;-83
2024/04/22 17:27:27;;;;;;;1.42;0.43;;;;;;;23.90;21.81;101055.66;11105541;26;20018;-83
2024/04/22 17:32:52;;;;;;;0.87;0.33;;;;;;;23.95;20.75;101061.81;11131591;26;20348;-84
2024/04/22 17:38:17;;;;;;;0.65;0.38;;;;;;;24.01;20.22;101064.28;11132114;26;20000;-82
2024/04/22 17:43:45;;;;;;;0.22;0.20;;;;;;;24.06;19.36;101056.91;11107177;26;20001;-83
2024/04/22 17:49:09;;;;;;;;;;;;;;;24.12;18.84;101067.50;11109529;26;20000;-86
2024/04/22 17:54:33;;;;;;;3.38;0.43;;;;;;;24.06;19.43;101051.53;11095193;26;19999;-82
2024/04/22 18:00:00;;;;;;;1.20;0.40;;;;;;;24.07;19.50;101053.28;11085795;26;20036;-83
2024/04/22 18:05:24;;;;;;;1.00;0.38;;;;;;;24.03;19.84;101057.00;11112979;26;20467;-83
2024/04/22 18:10:49;;;;;;;2.92;0.88;;;;;;;23.96;20.65;101059.03;11133453;26;20502;-88
2024/04/22 18:16:16;;;;;;;1.13;0.30;;;;;;;23.91;21.05;101052.94;11131184;26;20008;-81
2024/04/22 18:21:40;;;;;;;1.15;0.55;;;;;;;23.86;21.83;101067.50;11132750;26;20004;-84
2024/04/22 18:27:04;;;;;;;2.60;0.43;;;;;;;23.83;22.02;101061.28;11096662;26;20011;-86
2024/04/22 18:32:31;;;;;;;3.13;0.50;;;;;;;23.84;22.24;101065.75;11075377;26;20095;-84
2024/04/22 18:37:54;;;;;;;2.22;0.50;;;;;;;23.80;22.56;101057.81;11074853;26;20349;-86
2024/04/22 18:43:19;;;;;;;2.22;0.70;;;;;;;23.77;22.71;101072.28;11077597;26;20571;-82
2024/04/22 18:48:46;;;;;;;2.17;0.70;;;;;;;23.79;22.96;101064.16;11069488;26;20019;-82
2024/04/22 18:54:10;;;;;;;2.30;0.73;;;;;;;23.80;23.21;101061.41;11091721;26;20001;-82
2024/04/22 18:59:35;;;;;;;3.85;0.70;;;;;;;23.82;23.53;101051.47;11077687;26;20004;-87
2024/04/22 19:05:02;;;;;;;2.50;0.50;;;;;;;23.82;23.52;101056.84;11098325;26;20004;-86
2024/04/22 19:10:26;;;;;;;1.53;0.57;;;;;;;23.91;23.07;101035.88;11095787;26;20028;-88
2024/04/22 19:15:50;;;;;;;3.17;0.80;;;;;;;23.87;24.82;101045.88;11124246;26;20048;-87
2024/04/22 19:21:17;;;;;;;2.45;0.88;;;;;;;23.79;25.13;101056.06;11120005;26;20004;-84
2024/04/22 19:26:44;;;;;;;1.42;0.70;;;;;;;23.74;26.34;101061.63;11120996;26;20014;-87
2024/04/22 19:32:08;;;;;;;2.63;1.15;;;;;;;23.75;26.59;101070.59;11101603;26;20005;-85
2024/04/22 19:37:36;;;;;;;7.72;1.20;;;;;;;23.80;25.07;101044.34;11122894;26;20502;-86
2024/04/22 19:43:00;;;;;;;0.87;0.70;;;;;;;23.87;25.20;101063.88;11122659;26;20012;-86
2024/04/22 19:48:26;;;;;;;1.88;0.90;;;;;;;23.80;25.47;101060.53;11116085;26;20281;-87
2024/04/22 19:53:53;;;;;;;3.45;0.75;;;;;;;23.84;25.34;101060.34;11112249;26;20023;-88
2024/04/22 19:59:17;;;;;;;1.30;0.77;;;;;;;23.84;25.93;101054.06;11121978;26;20014;-87
2024/04/22 20:04:42;;;;;;;6.00;1.40;;;;;;;23.79;26.65;101042.56;11132148;26;20011;-88
2024/04/22 20:10:10;;;;;;;1.77;0.68;;;;;;;23.90;25.80;101042.19;11131503;26;20052;-88
2024/04/22 20:15:49;;;;;;;2.35;0.98;;;;;;;23.92;25.42;101010.66;11131412;26;20029;-88
2024/04/22 20:21:14;;;;;;;2.10;0.60;;;;;;;24.08;23.73;101036.16;11190123;26;20317;-88
2024/04/22 20:26:42;;;;;;;1.13;0.57;;;;;;;24.28;22.60;101036.38;11131613;26;20353;-88
2024/04/22 20:32:06;;;;;;;5.10;0.68;;;;;;;24.47;21.29;101031.16;11131156;26;20000;-87
2024/04/22 20:37:30;;;;;;;3.42;0.70;;;;;;;24.60;21.38;101027.06;11130145;26;20004;-87
2024/04/22 20:42:58;;;;;;;1.35;0.50;;;;;;;24.64;20.84;101026.00;11131325;26;20336;-88
2024/04/22 20:48:22;;;;;;;1.27;0.30;;;;;;;24.71;20.39;101022.13;11131029;26;19996;-88
2024/04/22 20:53:46;;;;;;;2.30;0.63;;;;;;;24.79;19.79;101024.53;11076252;26;20000;-88
2024/04/22 20:59:14;;;;;;;0.95;0.57;;;;;;;24.89;19.29;101017.81;11125530;26;20005;-86
2024/04/22 21:04:38;;;;;;;2.22;0.88;;;;;;;24.90;18.86;101014.22;11104341;26;20012;-86
2024/04/22 21:10:03;;;;;;;1.05;0.70;;;;;;;24.97;18.71;100978.78;11127974;26;20453;-86
2024/04/22 21:15:30;;;;;;;1.02;0.40;;;;;;;25.04;18.91;100974.03;11128345;26;20016;-86
2024/04/22 21:20:54;;;;;;;1.75;0.63;;;;;;;25.00;19.25;100975.97;11083012;26;20085;-85
2024/04/22 21:26:19;;;;;;;2.08;0.40;;;;;;;25.05;19.22;100956.88;11080301;26;20019;-86
2024/04/22 21:31:49;;;;;;;3.78;0.70;;;;;;;25.03;19.26;100939.81;11125809;26;20337;-86
2024/04/22 21:37:14;;;;;;;2.50;0.52;;;;;;;25.09;19.06;100966.59;11104579;26;20439;-88
2024/04/22 21:42:39;;;;;;;2.78;0.98;;;;;;;25.12;19.54;100949.38;11127748;26;20006;-86
2024/04/22 21:48:07;;;;;;;1.65;0.65;;;;;;;25.02;19.98;100959.69;11128964;26;20004;-86
2024/04/22 21:53:32;;;;;;;2.60;0.90;;;;;;;24.99;19.88;100966.09;11127625;26;20543;-87
2024/04/22 21:59:33;;;;;;;2.33;0.60;;;;;;;25.13;19.03;100989.88;11103094;26;20000;-88
2024/04/22 22:05:35;;;;;;;1.52;0.40;;;;;;;25.13;19.51;100975.47;11104367;26;20000;-87
2024/04/22 22:11:04;;;;;;;3.53;0.60;;;;;;;25.06;19.10;100947.81;11056729;26;20037;-88
2024/04/22 22:16:28;;;;;;;1.10;0.40;;;;;;;24.98;19.07;100945.44;11082467;26;20000;-89
2024/04/22 22:21:54;;;;;;;4.57;0.60;;;;;;;25.06;18.47;100955.94;11177535;26;19999;-88
2024/04/22 22:27:22;;;;;;;1.38;0.43;;;;;;;25.06;18.56;100933.44;11201144;26;19996;-88
2024/04/22 22:32:46;;;;;;;1.48;0.57;;;;;;;25.15;17.82;100968.16;11093011;26;20016;-88
2024/04/22 22:38:10;;;;;;;1.25;0.55;;;;;;;25.19;18.09;100950.91;11125961;26;20085;-87
2024/04/22 22:43:38;;;;;;;1.10;0.50;;;;;;;25.21;19.28;100952.56;11103692;26;20015;-87
2024/04/22 22:49:02;;;;;;;2.55;0.90;;;;;;;25.24;21.52;100960.56;11126818;26;20004;-89
2024/04/22 22:54:26;;;;;;;1.33;0.50;;;;;;;25.05;21.20;100951.47;11122056;26;20005;-86
2024/04/22 22:59:53;;;;;;;1.58;0.45;;;;;;;25.03;21.42;100942.53;11129140;26;20004;-87
2024/04/22 23:05:17;;;;;;;3.45;0.90;;;;;;;25.00;23.84;100943.56;11101553;26;20015;-88
2024/04/22 23:10:42;;;;;;;2.03;0.82;;;;;;;25.05;22.30;100978.50;11116507;26;20000;-87
2024/04/22 23:16:11;;;;;;;5.40;1.27;;;;;;;24.93;28.04;100931.25;11111568;26;20000;-86
2024/04/22 23:21:36;;;;;;;6.20;1.35;;;;;;;24.62;31.18;100965.75;11123561;26;20020;-86
2024/04/22 23:27:00;;;;;;;5.80;1.20;;;;;;;24.35;32.32;100958.75;11103286;26;20528;-88
2024/04/22 23:32:27;;;;;;;6.45;1.35;;;;;;;24.07;33.30;100948.06;11132401;26;20004;-87
2024/04/22 23:37:52;;;;;;;4.38;1.27;;;;;;;24.06;33.63;100940.91;11130620;26;20008;-86
2024/04/22 23:43:16;;;;;;;4.10;0.93;;;;;;;24.09;29.76;100925.47;11127467;26;20529;-86
2024/04/22 23:48:44;;;;;;;2.67;0.80;;;;;;;24.28;25.99;100906.84;11093720;26;20024;-87
2024/04/22 23:54:09;;;;;;;5.75;0.73;;;;;;;24.59;23.98;100917.28;11095143;26;20001;-88
2024/04/22 23:59:33;;;;;;;5.00;1.08;;;;;;;24.84;24.10;100903.69;11140465;26;20008;-89
